Time;durP1;ratioP1;P1;durP2;ratioP2;P2;SDS_P1;SDS_P2;PMS_P1;PMS_P2;Temp;Humidity;BMP_temperature;BMP_pressure;BME280_temperature;BME280_humidity;BME280_pressure;Samples;Min_cycle;Max_cycle;Signal;HPM_P1;HPM_P2
2023/06/06 00:01:17;;;;;;;22.25;12.13;;;;;;;13.06;90.31;101939.22;5090264;28;20024;-56
2023/06/06 00:03:44;;;;;;;23.55;12.48;;;;;;;13.04;91.18;101935.06;5094110;28;20025;-56
2023/06/06 00:06:10;;;;;;;23.55;13.13;;;;;;;13.03;90.87;101936.22;5094061;28;20031;-57
2023/06/06 00:08:36;;;;;;;22.42;11.85;;;;;;;12.95;91.56;101935.72;5093907;28;20028;-57
2023/06/06 00:11:01;;;;;;;22.48;12.80;;;;;;;12.95;90.95;101932.94;5093879;28;20116;-58
2023/06/06 00:13:32;;;;;;;22.98;12.30;;;;;;;12.89;91.16;101936.91;5094159;28;20028;-57
2023/06/06 00:15:58;;;;;;;22.88;12.73;;;;;;;12.84;91.48;101931.44;5094009;28;20103;-57
2023/06/06 00:18:26;;;;;;;22.58;12.50;;;;;;;12.79;91.60;101934.25;5094039;28;20099;-58
2023/06/06 00:20:53;;;;;;;23.98;13.18;;;;;;;12.78;91.58;101936.22;5093951;28;20039;-57
2023/06/06 00:23:20;;;;;;;22.13;12.27;;;;;;;12.79;91.60;101928.69;5093855;28;20058;-57
2023/06/06 00:25:45;;;;;;;23.13;13.20;;;;;;;12.70;92.05;101933.25;5093879;28;20028;-57
2023/06/06 00:28:11;;;;;;;22.77;12.95;;;;;;;12.61;93.07;101930.31;5093721;28;20047;-57
2023/06/06 00:30:36;;;;;;;23.17;12.98;;;;;;;12.49;93.61;101927.91;5093724;28;20422;-57
2023/06/06 00:33:01;;;;;;;22.10;12.65;;;;;;;12.50;93.69;101934.28;5094027;28;20039;-57
2023/06/06 00:35:26;;;;;;;23.77;13.00;;;;;;;12.33;94.23;101919.72;5112609;28;20479;-58
2023/06/06 00:37:52;;;;;;;22.70;13.15;;;;;;;12.35;94.09;101932.50;5113922;28;20035;-57
2023/06/06 00:40:17;;;;;;;24.80;12.95;;;;;;;12.34;94.42;101934.41;5113671;28;20045;-57
2023/06/06 00:42:42;;;;;;;24.80;13.88;;;;;;;12.36;94.12;101939.69;5113752;28;20035;-58
2023/06/06 00:45:08;;;;;;;23.05;13.32;;;;;;;12.30;94.76;101934.19;5113181;28;20027;-57
2023/06/06 00:47:34;;;;;;;21.63;13.00;;;;;;;12.20;94.76;101939.81;5113713;28;20028;-57
2023/06/06 00:50:01;;;;;;;23.50;13.48;;;;;;;12.17;95.24;101941.22;5113522;28;20391;-58
2023/06/06 00:52:27;;;;;;;22.83;13.15;;;;;;;12.13;95.30;101942.94;5113569;28;20038;-57
2023/06/06 00:54:53;;;;;;;23.90;13.32;;;;;;;12.07;95.29;101941.31;5113429;28;20039;-58
2023/06/06 00:57:18;;;;;;;23.45;13.25;;;;;;;12.05;96.39;101937.19;5113676;28;20031;-57
2023/06/06 00:59:45;;;;;;;23.08;13.25;;;;;;;12.01;96.17;101936.94;5110120;28;20035;-57
2023/06/06 01:02:10;;;;;;;25.23;13.27;;;;;;;11.96;95.82;101940.53;5112920;28;20175;-57
2023/06/06 01:04:40;;;;;;;24.25;14.02;;;;;;;11.92;96.33;101935.84;5113209;28;20102;-58
2023/06/06 01:07:07;;;;;;;23.17;13.07;;;;;;;11.89;97.00;101925.34;5113402;28;20042;-58
2023/06/06 01:09:34;;;;;;;23.00;13.00;;;;;;;11.71;97.85;101928.50;5113263;27;20028;-58
2023/06/06 01:12:07;;;;;;;23.38;13.20;;;;;;;11.66;98.49;101922.19;5113389;28;20027;-58
2023/06/06 01:14:49;;;;;;;23.52;13.90;;;;;;;11.71;97.50;101934.03;5113542;28;20470;-57
2023/06/06 01:17:17;;;;;;;23.08;13.43;;;;;;;11.68;97.86;101931.84;5113127;28;20102;-58
2023/06/06 01:19:43;;;;;;;25.10;13.50;;;;;;;11.62;98.14;101938.53;5113286;28;20556;-58
2023/06/06 01:22:13;;;;;;;22.70;12.95;;;;;;;11.58;98.55;101931.06;5113014;28;20044;-58
2023/06/06 01:24:42;;;;;;;23.52;13.52;;;;;;;11.54;99.11;101933.59;5112928;28;20030;-58
2023/06/06 01:27:07;;;;;;;23.23;13.52;;;;;;;11.55;98.58;101935.25;5098415;28;20103;-58
2023/06/06 01:29:32;;;;;;;23.20;13.00;;;;;;;11.48;98.49;101935.56;5092477;28;20085;-58
2023/06/06 01:32:22;;;;;;;25.05;13.48;;;;;;;11.49;98.51;101928.91;5092525;28;20107;-58
2023/06/06 01:35:00;;;;;;;23.52;12.73;;;;;;;11.45;99.02;101930.63;5091026;28;20020;-57
2023/06/06 01:37:48;;;;;;;23.20;13.35;;;;;;;11.43;99.00;101923.72;5092153;28;20116;-58
2023/06/06 01:40:17;;;;;;;24.35;13.82;;;;;;;11.32;99.33;101926.53;5092313;28;20148;-58
2023/06/06 01:42:45;;;;;;;23.08;13.20;;;;;;;11.28;99.52;101925.44;5092172;28;20036;-58
2023/06/06 01:45:14;;;;;;;23.17;12.93;;;;;;;11.21;100.00;101922.97;5074315;28;20516;-58
2023/06/06 01:47:41;;;;;;;23.50;13.23;;;;;;;11.13;100.00;101926.31;5072029;28;20033;-58
2023/06/06 01:50:08;;;;;;;24.17;13.10;;;;;;;11.07;100.00;101928.28;5072128;28;20025;-58
2023/06/06 01:52:37;;;;;;;21.77;12.30;;;;;;;11.06;100.00;101926.63;5071888;28;20399;-58
2023/06/06 01:55:07;;;;;;;21.95;12.48;;;;;;;11.05;100.00;101926.91;5072169;28;20454;-57
2023/06/06 01:57:33;;;;;;;25.30;13.98;;;;;;;10.96;100.00;101926.66;5072118;28;20037;-58
2023/06/06 01:59:59;;;;;;;23.23;12.43;;;;;;;10.95;100.00;101932.47;5069036;28;20029;-58
2023/06/06 02:02:24;;;;;;;23.33;13.10;;;;;;;10.97;100.00;101930.28;5071534;28;20024;-58
2023/06/06 02:04:50;;;;;;;25.13;13.80;;;;;;;10.92;100.00;101918.09;5071892;28;20039;-57
2023/06/06 02:07:16;;;;;;;25.42;13.13;;;;;;;10.87;100.00;101929.19;5071940;28;20024;-58
2023/06/06 02:09:42;;;;;;;25.02;13.73;;;;;;;10.79;100.00;101927.00;5071977;28;20032;-58
2023/06/06 02:12:08;;;;;;;23.95;13.38;;;;;;;10.77;100.00;101932.81;5070409;28;20029;-58
2023/06/06 02:14:34;;;;;;;22.85;12.68;;;;;;;10.81;100.00;101927.56;5073781;28;20145;-58
2023/06/06 02:16:59;;;;;;;23.63;13.43;;;;;;;10.72;100.00;101927.28;5075799;28;20036;-58
2023/06/06 02:19:25;;;;;;;24.98;13.18;;;;;;;10.73;100.00;101926.19;5081645;28;20518;-56
2023/06/06 02:21:51;;;;;;;23.95;13.25;;;;;;;10.72;100.00;101924.53;5094578;28;20047;-58
2023/06/06 02:24:17;;;;;;;24.45;13.00;;;;;;;10.71;100.00;101925.63;5096344;28;20103;-57
2023/06/06 02:26:42;;;;;;;23.48;12.70;;;;;;;10.71;100.00;101925.63;5095982;28;20496;-58
2023/06/06 02:29:07;;;;;;;24.33;13.00;;;;;;;10.71;100.00;101925.63;5096031;28;20031;-57
2023/06/06 02:31:33;;;;;;;22.50;13.00;;;;;;;10.67;100.00;101927.31;5095939;28;20059;-58
2023/06/06 02:33:58;;;;;;;22.95;12.80;;;;;;;10.63;100.00;101930.94;5095792;28;20024;-58
2023/06/06 02:36:25;;;;;;;23.08;13.13;;;;;;;10.55;100.00;101926.78;5095823;28;20020;-57
2023/06/06 02:38:50;;;;;;;22.95;13.15;;;;;;;10.53;100.00;101923.47;5095844;28;20103;-57
2023/06/06 02:41:16;;;;;;;23.30;13.63;;;;;;;10.40;100.00;101924.88;5095652;28;20146;-57
2023/06/06 02:43:42;;;;;;;22.80;13.43;;;;;;;10.30;100.00;101915.44;5095355;28;20493;-57
2023/06/06 02:46:07;;;;;;;23.52;13.60;;;;;;;10.23;100.00;101917.66;5095665;28;20020;-57
2023/06/06 02:48:33;;;;;;;23.65;13.90;;;;;;;10.24;100.00;101929.53;5095519;28;20032;-57
2023/06/06 02:50:59;;;;;;;24.25;14.05;;;;;;;10.15;100.00;101921.81;5095570;28;20081;-57
2023/06/06 02:53:24;;;;;;;23.13;13.35;;;;;;;10.18;100.00;101919.59;5095590;28;20024;-57
2023/06/06 02:55:49;;;;;;;23.15;13.50;;;;;;;10.17;100.00;101931.78;5094274;28;20062;-57
2023/06/06 02:58:28;;;;;;;25.55;13.90;;;;;;;10.14;100.00;101933.16;5093326;28;20189;-58
2023/06/06 03:00:57;;;;;;;24.77;14.02;;;;;;;10.14;100.00;101925.69;5095483;28;20020;-56
2023/06/06 03:03:24;;;;;;;24.02;13.52;;;;;;;10.18;100.00;101930.66;5095490;28;20067;-56
2023/06/06 03:05:51;;;;;;;23.63;13.27;;;;;;;10.25;100.00;101929.25;5095176;28;20077;-58
2023/06/06 03:08:19;;;;;;;23.45;13.82;;;;;;;10.30;100.00;101934.81;5095118;28;20056;-56
2023/06/06 03:10:46;;;;;;;23.30;13.32;;;;;;;10.25;100.00;101937.56;5094976;28;20036;-57
2023/06/06 03:13:11;;;;;;;23.85;13.02;;;;;;;10.30;100.00;101937.56;5094775;28;20028;-58
2023/06/06 03:15:37;;;;;;;24.10;13.10;;;;;;;10.28;100.00;101944.50;5094677;28;20024;-56
2023/06/06 03:18:02;;;;;;;23.73;13.82;;;;;;;10.23;100.00;101939.78;5094297;28;20032;-57
2023/06/06 03:20:30;;;;;;;23.48;13.45;;;;;;;10.17;100.00;101938.13;5094448;28;20056;-57
2023/06/06 03:22:56;;;;;;;24.08;13.68;;;;;;;10.13;100.00;101935.06;5094261;28;20502;-57
2023/06/06 03:25:25;;;;;;;25.60;13.65;;;;;;;10.13;100.00;101935.06;5094301;28;20042;-57
2023/06/06 03:27:50;;;;;;;23.05;13.30;;;;;;;10.13;100.00;101945.31;5094310;28;20020;-57
2023/06/06 03:30:15;;;;;;;24.98;14.25;;;;;;;10.13;100.00;101937.03;5094133;28;20492;-57
2023/06/06 03:32:42;;;;;;;24.02;13.35;;;;;;;10.18;100.00;101937.00;5092797;28;20069;-57
2023/06/06 03:35:08;;;;;;;23.40;14.00;;;;;;;10.17;100.00;101935.34;5094226;28;20020;-57
2023/06/06 03:37:33;;;;;;;25.58;13.93;;;;;;;10.12;100.00;101949.19;5091544;28;20590;-57
2023/06/06 03:39:58;;;;;;;24.95;14.45;;;;;;;10.07;100.00;101941.72;5091980;28;20039;-57
2023/06/06 03:42:24;;;;;;;24.35;14.18;;;;;;;10.05;100.00;101943.91;5094025;28;20487;-57
2023/06/06 03:44:49;;;;;;;26.85;14.90;;;;;;;10.06;100.00;101942.81;5094303;28;20024;-57
2023/06/06 03:47:14;;;;;;;25.00;14.23;;;;;;;10.17;100.00;101935.34;5094270;28;20074;-57
2023/06/06 03:49:40;;;;;;;25.35;14.27;;;;;;;10.25;100.00;101945.03;5094362;28;20095;-57
2023/06/06 03:52:05;;;;;;;22.80;13.43;;;;;;;10.30;100.00;101942.25;5094020;28;20024;-57
2023/06/06 03:54:32;;;;;;;24.92;13.68;;;;;;;10.31;100.00;101938.38;5094168;28;20051;-57
2023/06/06 03:56:58;;;;;;;24.13;14.07;;;;;;;10.24;100.00;101935.06;5093891;28;20032;-57
2023/06/06 03:59:23;;;;;;;23.88;14.15;;;;;;;10.22;100.00;101935.38;5094122;28;20016;-58
2023/06/06 04:01:48;;;;;;;26.13;14.30;;;;;;;10.21;100.00;101942.00;5093899;28;20053;-59
2023/06/06 04:04:15;;;;;;;23.77;14.02;;;;;;;10.16;100.00;101939.22;5093840;28;20027;-57
2023/06/06 04:06:41;;;;;;;27.15;14.25;;;;;;;10.17;100.00;101942.81;5093931;28;20036;-57
2023/06/06 04:09:10;;;;;;;23.40;13.32;;;;;;;10.18;100.00;101939.78;5093950;28;20039;-57
2023/06/06 04:11:36;;;;;;;25.35;14.25;;;;;;;10.13;100.00;101940.59;5093614;28;20028;-57
2023/06/06 04:14:01;;;;;;;24.67;13.18;;;;;;;10.17;100.00;101937.31;5093849;28;20035;-57
2023/06/06 04:16:27;;;;;;;26.02;14.57;;;;;;;10.16;100.00;101939.22;5093857;28;20038;-57
2023/06/06 04:18:52;;;;;;;25.25;14.93;;;;;;;10.12;100.00;101941.72;5093446;28;20411;-56
2023/06/06 04:21:18;;;;;;;24.30;15.43;;;;;;;10.10;100.00;101934.81;5093441;28;20173;-57
2023/06/06 04:23:44;;;;;;;26.23;15.40;;;;;;;10.14;100.00;101935.91;5093468;28;20456;-57
2023/06/06 04:26:27;;;;;;;25.45;14.18;;;;;;;10.19;100.00;101938.66;5093305;28;20035;-57
2023/06/06 04:28:53;;;;;;;23.77;13.32;;;;;;;10.21;100.00;101946.69;5093315;28;20036;-57
2023/06/06 04:31:23;;;;;;;26.00;13.90;;;;;;;10.14;100.00;101941.44;5093356;28;20035;-56
2023/06/06 04:33:54;;;;;;;26.73;14.90;;;;;;;10.19;100.00;101938.66;5090211;28;20036;-58
2023/06/06 04:36:21;;;;;;;23.90;14.10;;;;;;;10.19;100.00;101938.66;5092523;28;20103;-57
2023/06/06 04:38:51;;;;;;;25.92;13.77;;;;;;;10.23;100.00;101945.31;5093357;28;20119;-58
2023/06/06 04:41:17;;;;;;;24.83;15.05;;;;;;;10.22;100.00;101940.91;5093144;28;20041;-59
2023/06/06 04:43:49;;;;;;;24.30;14.43;;;;;;;10.23;100.00;101938.94;5093122;28;20117;-57
2023/06/06 04:46:21;;;;;;;23.70;14.20;;;;;;;10.26;100.00;101943.94;5093153;28;20024;-57
2023/06/06 04:48:53;;;;;;;25.52;14.30;;;;;;;10.35;100.00;101942.28;5093145;28;20035;-58
2023/06/06 04:51:33;;;;;;;27.73;15.23;;;;;;;10.40;100.00;101941.47;5093071;28;20040;-57
2023/06/06 04:54:01;;;;;;;24.95;14.60;;;;;;;10.45;100.00;101934.00;5093353;28;20057;-58
2023/06/06 04:56:28;;;;;;;26.45;15.02;;;;;;;10.49;100.00;101936.19;5092726;28;20028;-57
2023/06/06 04:58:54;;;;;;;24.80;14.80;;;;;;;10.51;100.00;101945.88;5092767;28;20103;-57
2023/06/06 05:01:20;;;;;;;24.95;14.18;;;;;;;10.57;100.00;101941.19;5092490;28;20099;-57
2023/06/06 05:03:46;;;;;;;23.90;14.27;;;;;;;10.61;100.00;101934.81;5092690;28;20035;-57
2023/06/06 05:06:11;;;;;;;23.27;13.93;;;;;;;10.67;100.00;101941.16;5092692;28;20024;-57
2023/06/06 05:08:41;;;;;;;23.85;14.05;;;;;;;10.74;100.00;101946.38;5092627;28;20027;-57
2023/06/06 05:11:07;;;;;;;25.27;14.90;;;;;;;10.82;100.00;101945.81;5092758;28;20030;-57
2023/06/06 05:13:33;;;;;;;25.10;14.20;;;;;;;10.89;100.00;101945.50;5092703;28;20119;-58
2023/06/06 05:15:58;;;;;;;24.08;14.50;;;;;;;10.98;100.00;101948.53;5092518;28;20433;-57
2023/06/06 05:18:24;;;;;;;25.33;14.05;;;;;;;11.10;100.00;101951.00;5092466;28;20046;-57
2023/06/06 05:20:50;;;;;;;24.88;15.10;;;;;;;11.08;100.00;101943.78;5092923;28;20107;-56
2023/06/06 05:23:15;;;;;;;23.27;14.55;;;;;;;11.13;100.00;101950.44;5092465;28;20422;-58
2023/06/06 05:25:41;;;;;;;25.67;14.50;;;;;;;11.17;100.00;101945.97;5092345;28;20035;-57
2023/06/06 05:28:06;;;;;;;24.92;14.70;;;;;;;11.28;100.00;101944.81;5092469;28;20039;-57
2023/06/06 05:30:31;;;;;;;26.27;14.75;;;;;;;11.37;100.00;101943.13;5089070;28;20039;-57
2023/06/06 05:32:57;;;;;;;24.40;14.00;;;;;;;11.49;100.00;101948.31;5092695;28;20024;-58
2023/06/06 05:35:22;;;;;;;24.45;13.73;;;;;;;11.60;99.28;101940.78;5092272;28;20100;-57
2023/06/06 05:37:49;;;;;;;23.50;14.05;;;;;;;11.61;99.10;101942.44;5092249;28;20035;-56
2023/06/06 05:40:15;;;;;;;24.38;14.43;;;;;;;11.63;99.93;101942.97;5091927;28;20124;-56
2023/06/06 05:42:40;;;;;;;24.80;14.13;;;;;;;11.68;98.60;101945.72;5092012;28;20051;-56
2023/06/06 05:45:06;;;;;;;23.60;14.45;;;;;;;11.69;98.29;101949.31;5092145;28;20020;-56
2023/06/06 05:47:31;;;;;;;24.65;14.73;;;;;;;11.75;97.94;101956.50;5092022;28;20028;-57
2023/06/06 05:49:56;;;;;;;24.83;14.55;;;;;;;11.85;98.23;101961.13;5091292;28;20106;-57
2023/06/06 05:52:21;;;;;;;24.20;14.18;;;;;;;11.99;96.76;101961.34;5091972;28;20039;-58
2023/06/06 05:54:47;;;;;;;22.88;13.05;;;;;;;12.13;96.61;101953.19;5092087;28;20098;-58
2023/06/06 05:57:20;;;;;;;23.55;14.00;;;;;;;12.21;95.05;101960.06;5092012;28;20107;-58
2023/06/06 05:59:45;;;;;;;22.90;14.27;;;;;;;12.31;95.45;101957.22;5091957;28;20095;-57
2023/06/06 06:02:13;;;;;;;24.60;13.82;;;;;;;12.42;94.36;101960.72;5091914;28;20506;-58
2023/06/06 06:04:39;;;;;;;22.75;13.77;;;;;;;12.50;94.47;101959.28;5086369;28;20081;-58
2023/06/06 06:07:05;;;;;;;23.75;14.30;;;;;;;12.49;93.50;101961.22;5080680;28;20088;-58
2023/06/06 06:09:31;;;;;;;23.90;14.10;;;;;;;12.58;93.43;101948.34;5083571;28;20106;-58
2023/06/06 06:11:56;;;;;;;25.88;13.65;;;;;;;12.60;92.86;101950.84;5088898;28;20058;-58
2023/06/06 06:14:21;;;;;;;23.02;13.70;;;;;;;12.60;92.78;101950.84;5092140;28;20317;-58
2023/06/06 06:16:47;;;;;;;26.20;16.30;;;;;;;12.71;92.87;101949.59;5091772;28;20032;-58
2023/06/06 06:19:12;;;;;;;22.55;14.05;;;;;;;12.79;91.75;101946.22;5091711;28;20399;-58
2023/06/06 06:21:37;;;;;;;22.27;13.77;;;;;;;12.93;90.64;101948.25;5091188;28;20024;-58
2023/06/06 06:24:04;;;;;;;23.65;13.73;;;;;;;13.09;90.84;101951.69;5091796;28;20046;-58
2023/06/06 06:26:29;;;;;;;24.40;14.75;;;;;;;13.16;90.08;101951.34;5091695;28;20031;-58
2023/06/06 06:28:55;;;;;;;22.92;12.95;;;;;;;13.27;89.69;101952.88;5088289;28;20032;-59
2023/06/06 06:31:20;;;;;;;22.67;12.95;;;;;;;13.40;88.49;101957.72;5092032;28;20024;-58
2023/06/06 06:33:46;;;;;;;23.20;13.00;;;;;;;13.41;87.77;101947.44;5091697;28;20388;-58
2023/06/06 06:36:11;;;;;;;21.80;12.57;;;;;;;13.48;87.84;101952.59;5091794;28;20070;-58
2023/06/06 06:38:36;;;;;;;22.13;12.70;;;;;;;13.54;87.78;101960.59;5091509;28;20020;-58
2023/06/06 06:41:01;;;;;;;23.15;13.77;;;;;;;13.65;86.77;101958.47;5091644;28;20032;-58
2023/06/06 06:43:27;;;;;;;23.35;13.70;;;;;;;13.77;85.55;101962.78;5091523;28;20065;-57
2023/06/06 06:45:52;;;;;;;20.85;13.45;;;;;;;13.92;85.64;101968.13;5091794;28;20029;-58
2023/06/06 06:48:17;;;;;;;22.90;13.20;;;;;;;14.03;84.69;101971.56;5091465;28;20451;-58
2023/06/06 06:50:43;;;;;;;22.80;13.13;;;;;;;14.07;84.51;101969.00;5091673;28;20031;-57
2023/06/06 06:53:12;;;;;;;24.10;13.85;;;;;;;14.01;83.49;101965.47;5091487;28;20028;-59
2023/06/06 06:55:38;;;;;;;23.92;13.48;;;;;;;13.94;83.84;101973.38;5091543;28;20028;-58
2023/06/06 06:58:05;;;;;;;22.33;13.27;;;;;;;14.08;84.38;101971.47;5091316;28;20032;-58
2023/06/06 07:00:31;;;;;;;22.17;13.02;;;;;;;14.14;84.05;101966.66;5093477;28;20111;-59
2023/06/06 07:02:57;;;;;;;20.95;12.77;;;;;;;14.16;82.86;101973.59;5095115;28;20107;-60
2023/06/06 07:05:23;;;;;;;25.88;13.57;;;;;;;14.29;82.35;101972.00;5095276;28;20035;-59
2023/06/06 07:07:53;;;;;;;22.88;13.43;;;;;;;14.39;82.39;101972.94;5095210;28;20028;-60
2023/06/06 07:10:19;;;;;;;22.10;13.88;;;;;;;14.47;82.36;101966.69;5094797;28;20107;-60
2023/06/06 07:12:49;;;;;;;21.77;13.15;;;;;;;14.57;82.21;101969.28;5093872;28;20093;-59
2023/06/06 07:15:16;;;;;;;22.17;13.18;;;;;;;14.66;81.44;101969.38;5083831;28;20099;-59
2023/06/06 07:17:48;;;;;;;21.05;13.10;;;;;;;14.74;80.37;101976.25;5089335;28;20035;-59
2023/06/06 07:20:13;;;;;;;22.27;12.65;;;;;;;14.88;80.51;101976.25;5093433;28;20605;-59
2023/06/06 07:22:39;;;;;;;21.73;13.23;;;;;;;14.97;79.49;101966.88;5090882;28;20036;-58
2023/06/06 07:25:05;;;;;;;20.75;12.95;;;;;;;15.09;79.33;101973.91;5080124;28;20032;-59
2023/06/06 07:27:35;;;;;;;22.77;13.70;;;;;;;15.16;79.17;101968.72;5073238;28;20398;-58
2023/06/06 07:30:06;;;;;;;22.92;13.30;;;;;;;15.21;78.95;101965.03;5073028;28;20074;-60
2023/06/06 07:32:33;;;;;;;21.85;12.93;;;;;;;15.16;78.46;101956.75;5073239;28;20500;-59
2023/06/06 07:34:59;;;;;;;21.55;13.00;;;;;;;15.27;78.43;101953.44;5073008;28;20490;-60
2023/06/06 07:37:24;;;;;;;22.95;13.23;;;;;;;15.44;78.17;101958.38;5075975;28;20032;-59
2023/06/06 07:39:49;;;;;;;23.80;13.32;;;;;;;15.56;78.23;101966.22;5073063;28;20032;-58
2023/06/06 07:42:15;;;;;;;22.83;13.70;;;;;;;15.68;76.72;101956.47;5071732;28;20042;-58
2023/06/06 07:44:40;;;;;;;21.50;13.13;;;;;;;15.75;76.72;101954.91;5073118;28;20452;-58
2023/06/06 07:47:05;;;;;;;22.52;14.02;;;;;;;15.76;75.50;101961.31;5072861;28;20082;-58
2023/06/06 07:49:31;;;;;;;22.25;13.20;;;;;;;15.79;75.88;101954.28;5086630;28;20028;-59
2023/06/06 07:51:57;;;;;;;23.45;13.82;;;;;;;15.78;75.42;101942.28;5092841;28;20482;-59
2023/06/06 07:54:22;;;;;;;22.90;13.18;;;;;;;15.82;75.77;101956.44;5093208;28;20081;-58
2023/06/06 07:56:47;;;;;;;23.92;13.98;;;;;;;15.74;75.31;101946.84;5093064;28;20028;-59
2023/06/06 07:59:13;;;;;;;21.45;13.68;;;;;;;15.84;75.36;101943.03;5085817;28;20040;-58
2023/06/06 08:01:38;;;;;;;23.27;13.63;;;;;;;15.85;75.04;101937.13;5072455;28;20384;-60
2023/06/06 08:04:07;;;;;;;21.92;13.75;;;;;;;15.96;75.74;101946.09;5072468;28;20032;-60
2023/06/06 08:06:33;;;;;;;20.30;12.93;;;;;;;16.14;75.03;101941.44;5072354;28;20020;-59
2023/06/06 08:08:59;;;;;;;21.83;13.20;;;;;;;16.33;74.13;101948.81;5074700;28;20111;-58
2023/06/06 08:11:24;;;;;;;22.73;13.80;;;;;;;16.38;73.26;101949.50;5071515;28;20075;-59
2023/06/06 08:13:50;;;;;;;22.65;13.85;;;;;;;16.42;72.78;101955.25;5072439;28;20795;-59
2023/06/06 08:16:16;;;;;;;22.20;13.52;;;;;;;16.41;73.27;101945.25;5072382;28;20094;-58
2023/06/06 08:18:41;;;;;;;22.13;13.50;;;;;;;16.48;72.62;101942.81;5072211;28;20104;-59
2023/06/06 08:21:06;;;;;;;23.10;14.07;;;;;;;16.52;72.83;101945.81;5072697;28;20491;-59
2023/06/06 08:23:33;;;;;;;22.67;14.18;;;;;;;16.67;73.29;101950.97;5072195;28;20321;-60
2023/06/06 08:25:59;;;;;;;21.30;13.30;;;;;;;16.79;72.38;101950.38;5073427;28;20024;-59
2023/06/06 08:28:25;;;;;;;22.58;13.45;;;;;;;16.93;71.74;101946.66;5087778;28;20448;-59
2023/06/06 08:30:51;;;;;;;22.38;13.18;;;;;;;17.07;71.53;101954.94;5092747;28;20028;-59
2023/06/06 08:33:17;;;;;;;22.88;13.40;;;;;;;17.03;70.33;101945.56;5091579;28;20115;-60
2023/06/06 08:35:42;;;;;;;23.30;13.55;;;;;;;17.09;70.60;101952.66;5092061;28;20060;-59
2023/06/06 08:38:08;;;;;;;22.92;13.23;;;;;;;17.21;70.75;101944.47;5090984;28;20055;-59
2023/06/06 08:40:33;;;;;;;22.83;13.65;;;;;;;17.20;70.29;101940.00;5090296;28;20391;-59
2023/06/06 08:43:01;;;;;;;21.55;13.52;;;;;;;17.43;71.21;101940.72;5078339;28;20449;-61
2023/06/06 08:45:26;;;;;;;23.05;13.48;;;;;;;17.56;69.87;101941.75;5071329;28;20443;-60
2023/06/06 08:47:54;;;;;;;22.33;13.45;;;;;;;17.52;69.71;101931.53;5073033;28;20080;-60
2023/06/06 08:50:21;;;;;;;21.55;13.38;;;;;;;17.60;68.74;101945.53;5073228;28;20095;-61
2023/06/06 08:52:48;;;;;;;21.00;12.65;;;;;;;17.80;68.85;101934.03;5072904;28;20039;-60
2023/06/06 08:55:14;;;;;;;22.42;13.63;;;;;;;17.84;67.66;101929.41;5072927;28;20039;-60
2023/06/06 08:57:41;;;;;;;21.60;13.40;;;;;;;17.86;67.74;101936.31;5072707;28;20385;-58
2023/06/06 09:00:18;;;;;;;22.55;13.13;;;;;;;18.03;68.22;101934.69;5072871;28;20086;-59
2023/06/06 09:02:46;;;;;;;23.95;14.30;;;;;;;18.10;67.50;101926.63;5072492;28;20476;-59
2023/06/06 09:05:12;;;;;;;21.63;13.32;;;;;;;18.32;67.47;101938.78;5072764;28;20028;-59
2023/06/06 09:07:38;;;;;;;23.95;14.00;;;;;;;18.48;67.25;101942.69;5072699;28;20498;-59
2023/06/06 09:10:05;;;;;;;20.83;13.13;;;;;;;18.59;66.14;101931.94;5072495;28;20046;-59
2023/06/06 09:12:39;;;;;;;22.95;13.50;;;;;;;18.63;65.70;101932.06;5072529;28;20032;-59
2023/06/06 09:15:05;;;;;;;23.15;13.75;;;;;;;18.67;64.90;101933.06;5072609;28;20063;-59
2023/06/06 09:17:35;;;;;;;23.02;13.52;;;;;;;18.68;64.80;101927.13;5072455;28;20059;-58
2023/06/06 09:20:05;;;;;;;23.25;14.30;;;;;;;18.64;65.43;101926.16;5072685;28;20087;-58
2023/06/06 09:22:36;;;;;;;21.45;13.13;;;;;;;18.91;65.41;101943.69;5071858;28;20024;-58
2023/06/06 09:25:04;;;;;;;22.85;13.23;;;;;;;18.94;64.13;101931.00;5072414;28;20028;-59
2023/06/06 09:27:30;;;;;;;22.25;13.82;;;;;;;18.93;63.71;101938.59;5072359;28;20025;-58
2023/06/06 09:29:56;;;;;;;21.70;13.50;;;;;;;19.22;63.87;101938.94;5072295;28;20043;-60
2023/06/06 09:32:30;;;;;;;22.20;13.52;;;;;;;19.21;63.18;101937.28;5072301;28;20117;-59
2023/06/06 09:35:04;;;;;;;23.88;13.45;;;;;;;19.22;62.36;101925.75;5072521;28;20036;-60
2023/06/06 09:37:30;;;;;;;23.00;13.32;;;;;;;19.39;63.24;101923.97;5072476;28;20030;-60
2023/06/06 09:40:14;;;;;;;20.95;13.10;;;;;;;19.47;63.21;101918.28;5072253;28;20122;-60
2023/06/06 09:42:47;;;;;;;23.00;13.48;;;;;;;19.45;62.60;101920.63;5072143;28;20031;-60
2023/06/06 09:45:13;;;;;;;21.57;12.83;;;;;;;19.58;62.57;101917.88;5072370;28;20051;-60
2023/06/06 09:47:41;;;;;;;20.40;12.27;;;;;;;19.82;61.31;101916.38;5072149;28;20020;-60
2023/06/06 09:50:07;;;;;;;23.42;13.10;;;;;;;20.05;61.53;101908.44;5072247;28;20033;-60
2023/06/06 09:52:32;;;;;;;20.83;12.95;;;;;;;20.08;60.54;101907.72;5072269;28;20048;-59
2023/06/06 09:54:58;;;;;;;21.27;12.90;;;;;;;20.23;60.42;101909.91;5072596;28;20404;-60
2023/06/06 09:57:26;;;;;;;19.75;11.90;;;;;;;20.34;60.23;101910.25;5070765;28;20028;-60
2023/06/06 09:59:53;;;;;;;22.25;12.68;;;;;;;20.63;59.99;101914.06;5070796;28;20691;-60
2023/06/06 10:02:22;;;;;;;22.20;12.75;;;;;;;20.79;58.67;101910.59;5070597;28;20037;-60
2023/06/06 10:04:48;;;;;;;21.30;12.23;;;;;;;20.75;58.50;101913.28;5070578;28;20072;-60
2023/06/06 10:07:16;;;;;;;22.33;12.20;;;;;;;20.79;57.87;101913.41;5070595;28;20123;-59
2023/06/06 10:09:42;;;;;;;22.80;13.18;;;;;;;20.68;57.55;101913.84;5070511;28;20024;-60
2023/06/06 10:12:09;;;;;;;21.10;12.15;;;;;;;20.69;57.25;101912.66;5070577;28;20036;-60
2023/06/06 10:14:35;;;;;;;21.38;12.20;;;;;;;20.65;57.22;101914.53;5071929;28;20025;-59
2023/06/06 10:17:01;;;;;;;20.27;11.98;;;;;;;20.63;57.89;101902.81;5071824;28;20025;-60
2023/06/06 10:19:26;;;;;;;19.58;11.90;;;;;;;20.73;57.02;101908.00;5071554;28;20051;-60
2023/06/06 10:21:52;;;;;;;20.38;11.30;;;;;;;21.07;57.24;101895.81;5071616;28;20017;-60
2023/06/06 10:24:18;;;;;;;21.27;12.10;;;;;;;21.26;56.56;101901.66;5071733;28;20028;-60
2023/06/06 10:26:57;;;;;;;20.35;11.55;;;;;;;21.39;56.41;101893.19;5072116;28;20046;-60
2023/06/06 10:29:34;;;;;;;19.65;11.80;;;;;;;21.59;56.49;101892.22;5072053;28;20031;-60
2023/06/06 10:32:15;;;;;;;20.83;12.00;;;;;;;21.79;55.38;101906.47;5071751;28;20082;-60
2023/06/06 10:34:45;;;;;;;22.45;12.20;;;;;;;21.84;54.44;101894.94;5072102;28;20043;-60
2023/06/06 10:37:15;;;;;;;21.98;11.40;;;;;;;21.99;55.09;101901.00;5075587;28;20032;-60
2023/06/06 10:39:45;;;;;;;22.90;12.05;;;;;;;21.97;54.05;101898.53;5075692;28;20017;-61
2023/06/06 10:42:11;;;;;;;19.50;11.77;;;;;;;22.01;54.08;101888.19;5075597;28;20028;-60
2023/06/06 10:44:56;;;;;;;19.80;11.50;;;;;;;22.00;54.76;101897.00;5075528;28;20016;-60
2023/06/06 10:47:28;;;;;;;20.30;11.85;;;;;;;22.11;54.26;101881.19;5075178;28;20037;-60
2023/06/06 10:50:06;;;;;;;19.88;11.80;;;;;;;22.17;53.87;101884.56;5075679;28;20112;-59
2023/06/06 10:53:06;;;;;;;19.45;11.68;;;;;;;22.22;54.34;101884.31;5075314;28;20429;-59
2023/06/06 10:55:31;;;;;;;23.40;12.35;;;;;;;22.27;52.50;101892.50;5075162;28;20043;-60
2023/06/06 10:58:03;;;;;;;19.75;10.93;;;;;;;22.38;52.81;101887.16;5075450;28;20388;-60
2023/06/06 11:00:32;;;;;;;20.33;11.48;;;;;;;22.32;52.36;101882.94;5075323;28;20056;-60
2023/06/06 11:03:03;;;;;;;20.75;11.50;;;;;;;22.44;52.58;101886.53;5075080;28;20486;-61
2023/06/06 11:05:28;;;;;;;22.08;11.48;;;;;;;22.39;52.30;101885.94;5075331;28;20091;-60
2023/06/06 11:07:57;;;;;;;19.73;11.70;;;;;;;22.55;52.42;101880.34;5075035;28;20418;-61